createdAt,value
2023-05-04T00:00:11.734Z,102698.69
2023-05-04T00:02:47.245Z,102698.66
2023-05-04T00:05:19.725Z,102698.66
2023-05-04T00:07:52.288Z,102687.38
2023-05-04T00:10:24.618Z,102685.56
2023-05-04T00:12:57.215Z,102685.50
2023-05-04T00:15:30.804Z,102675.88
2023-05-04T00:18:03.163Z,102684.53
2023-05-04T00:20:35.409Z,102686.94
2023-05-04T00:23:07.627Z,102675.59
2023-05-04T00:25:39.841Z,102673.81
2023-05-04T00:28:12.098Z,102674.69
2023-05-04T00:30:44.619Z,102671.06
2023-05-04T00:33:16.969Z,102667.53
2023-05-04T00:35:49.157Z,102673.56
2023-05-04T00:38:21.681Z,102672.72
2023-05-04T00:40:54.046Z,102665.66
2023-05-04T00:43:26.988Z,102664.75
2023-05-04T00:45:59.794Z,102664.75
2023-05-04T00:48:35.911Z,102660.44
2023-05-04T00:51:09.601Z,102661.22
2023-05-04T00:53:42.945Z,102661.91
2023-05-04T00:56:19.128Z,102659.16
2023-05-04T00:58:54.746Z,102656.41
2023-05-04T01:01:27.110Z,102653.84
2023-05-04T01:03:59.821Z,102652.06
2023-05-04T01:07:15.199Z,102659.00
2023-05-04T01:10:05.665Z,102649.38
2023-05-04T01:13:06.616Z,102651.97
2023-05-04T01:15:41.514Z,102651.97
2023-05-04T01:18:14.031Z,102647.66
2023-05-04T01:20:46.492Z,102646.72
2023-05-04T01:23:18.745Z,102646.44
2023-05-04T01:26:08.540Z,102636.91
2023-05-04T01:29:16.815Z,102634.84
2023-05-04T01:31:50.474Z,102639.91
2023-05-04T01:34:23.463Z,102645.88
2023-05-04T01:36:56.219Z,102639.84
2023-05-04T01:39:30.263Z,102642.44
2023-05-04T01:42:02.750Z,102636.25
2023-05-04T01:44:35.298Z,102634.47
2023-05-04T01:47:07.818Z,102636.47
2023-05-04T01:49:40.850Z,102634.59
2023-05-04T01:52:13.384Z,102632.03
2023-05-04T01:54:45.623Z,102637.97
2023-05-04T01:57:17.997Z,102627.59
2023-05-04T01:59:50.458Z,102636.25
2023-05-04T02:02:23.603Z,102632.91
2023-05-04T02:04:55.985Z,102634.59
2023-05-04T02:07:28.424Z,102635.47
2023-05-04T02:10:00.993Z,102629.31
2023-05-04T02:12:33.461Z,102623.97
2023-05-04T02:15:06.546Z,102621.47
2023-05-04T02:17:39.023Z,102616.03
2023-05-04T02:20:13.283Z,102618.50
2023-05-04T02:22:45.928Z,102620.31
2023-05-04T02:25:18.344Z,102616.72
2023-05-04T02:27:50.658Z,102613.09
2023-05-04T02:30:23.091Z,102610.63
2023-05-04T02:32:55.961Z,102608.91
2023-05-04T02:35:30.540Z,102607.16
2023-05-04T02:38:03.733Z,102612.31
2023-05-04T02:40:36.035Z,102608.75
2023-05-04T02:43:08.546Z,102609.59
2023-05-04T02:45:41.034Z,102605.13
2023-05-04T02:48:16.663Z,102604.13
2023-05-04T02:50:48.935Z,102599.59
2023-05-04T02:53:21.289Z,102592.81
2023-05-04T02:55:53.639Z,102594.53
2023-05-04T02:58:25.901Z,102591.78
2023-05-04T03:00:59.371Z,102591.75
2023-05-04T03:03:34.842Z,102594.50
2023-05-04T03:06:07.457Z,102595.28
2023-05-04T03:08:42.774Z,102586.59
2023-05-04T03:11:15.170Z,102585.75
2023-05-04T03:13:47.510Z,102587.47
2023-05-04T03:16:19.834Z,102583.81
2023-05-04T03:18:52.100Z,102580.38
2023-05-04T03:21:24.725Z,102584.66
2023-05-04T03:23:57.301Z,102585.53
2023-05-04T03:26:30.099Z,102590.69
2023-05-04T03:29:02.516Z,102587.09
2023-05-04T03:31:34.977Z,102581.59
2023-05-04T03:34:07.498Z,102582.38
2023-05-04T03:36:39.839Z,102578.06
2023-05-04T03:39:12.820Z,102581.53
2023-05-04T03:41:45.185Z,102575.50
2023-05-04T03:44:17.558Z,102571.19
2023-05-04T03:46:49.880Z,102574.72
2023-05-04T03:49:22.478Z,102570.25
2023-05-04T03:51:54.882Z,102569.41
2023-05-04T03:54:27.160Z,102558.91
2023-05-04T03:57:04.636Z,102560.63
2023-05-04T03:59:37.043Z,102553.59
2023-05-04T04:02:11.628Z,102558.03
2023-05-04T04:04:43.890Z,102556.34
2023-05-04T04:07:16.186Z,102551.16
2023-05-04T04:09:48.622Z,102549.50
2023-05-04T04:12:21.265Z,102554.84
2023-05-04T04:14:53.526Z,102554.00
2023-05-04T04:17:25.939Z,102549.84
2023-05-04T04:19:58.332Z,102547.22
2023-05-04T04:22:30.853Z,102546.41
2023-05-04T04:25:03.729Z,102552.59
2023-05-04T04:27:36.905Z,102560.44
2023-05-04T04:30:10.277Z,102553.56
2023-05-04T04:32:42.731Z,102565.72
2023-05-04T04:35:15.305Z,102566.59
2023-05-04T04:37:47.861Z,102563.22
2023-05-04T04:40:20.203Z,102568.53
2023-05-04T04:42:52.788Z,102562.16
2023-05-04T04:45:25.065Z,102562.31
2023-05-04T04:47:58.061Z,102553.06
2023-05-04T04:50:30.663Z,102562.84
2023-05-04T04:53:02.895Z,102566.91
2023-05-04T04:55:35.133Z,102562.72
2023-05-04T04:58:09.130Z,102571.59
2023-05-04T05:00:41.328Z,102574.34
2023-05-04T05:03:13.797Z,102570.00
2023-05-04T05:05:46.193Z,102565.78
2023-05-04T05:08:18.492Z,102567.75
2023-05-04T05:10:50.808Z,102571.31
2023-05-04T05:13:23.422Z,102575.53
2023-05-04T05:15:55.932Z,102575.63
2023-05-04T05:18:29.605Z,102568.09
2023-05-04T05:21:02.089Z,102570.06
2023-05-04T05:23:35.825Z,102574.75
2023-05-04T05:26:08.230Z,102575.00
2023-05-04T05:28:40.584Z,102576.03
2023-05-04T05:31:13.013Z,102573.59
2023-05-04T05:33:45.414Z,102573.06
2023-05-04T05:36:21.690Z,102579.28
2023-05-04T05:38:54.079Z,102578.44
2023-05-04T05:41:26.445Z,102574.16
2023-05-04T05:43:58.975Z,102574.63
2023-05-04T05:46:31.289Z,102574.31
2023-05-04T05:49:06.214Z,102580.00
2023-05-04T05:51:38.599Z,102576.88
2023-05-04T05:54:11.021Z,102572.63
2023-05-04T05:56:43.295Z,102570.94
2023-05-04T05:59:16.208Z,102575.63
2023-05-04T06:01:48.483Z,102567.34
2023-05-04T06:04:21.021Z,102573.00
2023-05-04T06:06:53.924Z,102572.38
2023-05-04T06:09:26.193Z,102576.09
2023-05-04T06:11:58.824Z,102571.81
2023-05-04T06:14:31.099Z,102561.59
2023-05-04T06:17:17.900Z,102564.53
2023-05-04T06:19:51.564Z,102560.56
2023-05-04T06:22:23.764Z,102563.31
2023-05-04T06:25:01.512Z,102561.38
2023-05-04T06:27:36.194Z,102549.19
2023-05-04T06:30:09.381Z,102550.31
2023-05-04T06:32:41.713Z,102550.50
2023-05-04T06:35:14.069Z,102551.66
2023-05-04T06:37:46.607Z,102546.41
2023-05-04T06:40:18.936Z,102545.81
2023-05-04T06:42:51.089Z,102533.47
2023-05-04T06:45:23.266Z,102532.84
2023-05-04T06:47:57.657Z,102532.22
2023-05-04T06:50:30.790Z,102537.69
2023-05-04T06:53:11.032Z,102536.16
2023-05-04T06:55:43.145Z,102528.56
2023-05-04T06:58:19.257Z,102533.31
2023-05-04T07:00:52.168Z,102524.91
2023-05-04T07:03:24.489Z,102517.22
2023-05-04T07:05:56.842Z,102516.53
2023-05-04T07:08:29.047Z,102518.50
2023-05-04T07:11:01.440Z,102514.31
2023-05-04T07:13:33.769Z,102511.94
2023-05-04T07:19:53.812Z,102511.25
2023-05-04T07:23:06.649Z,102514.84
2023-05-04T07:27:00.504Z,102510.69
2023-05-04T07:30:06.117Z,102506.63
2023-05-04T07:33:27.556Z,102503.47
2023-05-04T07:42:37.706Z,102491.59
2023-05-04T07:48:57.633Z,102481.41
2023-05-04T07:51:32.326Z,102481.41
2023-05-04T07:54:07.873Z,102476.41
2023-05-04T07:56:46.842Z,102472.97
2023-05-04T07:59:31.018Z,102477.56
2023-05-04T08:02:22.529Z,102458.34
2023-05-04T08:05:47.933Z,102469.75
2023-05-04T08:08:22.680Z,102461.84
2023-05-04T08:11:08.448Z,102465.31
2023-05-04T08:20:27.883Z,102456.59
2023-05-04T08:23:10.042Z,102450.22
2023-05-04T08:25:49.872Z,102436.50
2023-05-04T08:28:22.661Z,102444.47
2023-05-04T08:30:54.973Z,102443.16
2023-05-04T08:33:27.475Z,102438.44
2023-05-04T08:36:00.653Z,102449.13
2023-05-04T08:38:33.022Z,102442.63
2023-05-04T08:41:06.197Z,102445.44
2023-05-04T08:43:38.835Z,102437.28
2023-05-04T08:46:11.842Z,102442.66
2023-05-04T08:48:45.166Z,102431.19
2023-05-04T08:51:18.331Z,102432.41
2023-05-04T08:53:52.142Z,102426.41
2023-05-04T08:56:25.453Z,102421.16
2023-05-04T08:59:02.168Z,102415.41
2023-05-04T09:01:36.860Z,102426.00
2023-05-04T09:04:09.398Z,102417.19
2023-05-04T09:06:42.272Z,102410.06
2023-05-04T09:09:15.134Z,102408.94
2023-05-04T09:11:48.118Z,102405.66
2023-05-04T09:14:23.394Z,102401.19
2023-05-04T09:16:55.734Z,102399.78
2023-05-04T09:19:33.681Z,102406.53
2023-05-04T09:22:18.417Z,102400.13
2023-05-04T09:24:50.868Z,102383.91
2023-05-04T09:27:23.392Z,102398.66
2023-05-04T09:29:57.694Z,102390.72
2023-05-04T09:32:30.794Z,102403.44
2023-05-04T09:35:03.586Z,102385.25
2023-05-04T09:37:47.472Z,102384.97
2023-05-04T09:40:30.611Z,102373.94
2023-05-04T09:43:03.418Z,102373.94
2023-05-04T09:45:44.249Z,102370.97
2023-05-04T09:48:27.294Z,102377.38
2023-05-04T09:51:04.376Z,102380.78
2023-05-04T09:53:39.576Z,102375.00
2023-05-04T09:56:30.221Z,102371.19
2023-05-04T09:59:03.192Z,102365.34
2023-05-04T10:01:35.744Z,102368.72
2023-05-04T10:04:08.433Z,102380.97
2023-05-04T10:06:43.583Z,102368.06
2023-05-04T10:09:16.829Z,102371.19
2023-05-04T10:11:49.807Z,102372.41
2023-05-04T10:14:22.788Z,102369.06
2023-05-04T10:17:18.677Z,102359.72
2023-05-04T10:20:19.729Z,102362.25
2023-05-04T10:23:37.360Z,102352.66
2023-05-04T10:26:53.913Z,102354.59
2023-05-04T10:29:29.507Z,102342.34
2023-05-04T10:32:02.220Z,102351.31
2023-05-04T10:34:35.833Z,102339.88
2023-05-04T10:37:20.638Z,102338.75
2023-05-04T10:39:54.683Z,102329.72
2023-05-04T10:42:27.008Z,102330.25
2023-05-04T10:44:59.667Z,102316.09
2023-05-04T10:47:36.067Z,102313.22
2023-05-04T10:50:12.436Z,102303.22
2023-05-04T10:52:54.150Z,102295.25
2023-05-04T10:55:26.675Z,102296.28
2023-05-04T10:57:59.431Z,102281.88
2023-05-04T11:01:27.553Z,102285.19
2023-05-04T11:04:11.976Z,102284.81
2023-05-04T11:15:00.589Z,102265.50
2023-05-04T11:17:33.397Z,102260.97
2023-05-04T11:20:20.124Z,102260.47
2023-05-04T11:22:59.509Z,102258.56
2023-05-04T11:25:41.375Z,102249.94
2023-05-04T11:28:16.703Z,102252.31
2023-05-04T11:30:48.885Z,102248.06
2023-05-04T11:33:23.996Z,102247.47
2023-05-04T11:36:04.621Z,102247.16
2023-05-04T11:39:14.108Z,102235.28
2023-05-04T11:41:48.023Z,102230.38
2023-05-04T11:44:26.471Z,102225.44
2023-05-04T16:15:04.384Z,101939.34
2023-05-04T16:18:27.964Z,101928.34
2023-05-04T16:25:18.074Z,101925.63
2023-05-04T16:28:31.523Z,101918.72
2023-05-04T18:32:37.239Z,101915.19
2023-05-04T19:23:02.416Z,101926.38
2023-05-04T19:40:15.795Z,101918.91
2023-05-04T19:55:09.763Z,101916.53
2023-05-04T20:28:32.726Z,101915.97
2023-05-04T21:07:45.423Z,101916.56
2023-05-04T21:10:49.330Z,101913.94
2023-05-04T21:14:03.054Z,101914.88
2023-05-04T21:19:49.215Z,101918.59
2023-05-04T21:59:05.016Z,101896.97
2023-05-04T22:15:29.513Z,101883.88
2023-05-04T22:22:09.402Z,101883.00
2023-05-04T22:28:59.343Z,101882.09
2023-05-04T22:31:53.709Z,101881.22
2023-05-04T22:37:31.094Z,101881.22
2023-05-04T22:40:55.176Z,101878.59
2023-05-04T22:44:02.994Z,101888.22
2023-05-04T22:55:24.015Z,101875.97
2023-05-04T23:01:50.929Z,101869.78
2023-05-04T23:19:13.090Z,101874.97
2023-05-04T23:22:30.896Z,101867.13
2023-05-04T23:40:10.780Z,101873.13
2023-05-04T23:55:48.097Z,101853.06
